createdAt,value
2019-04-05T00:00:07.439Z,99847.38
2019-04-05T00:02:36.095Z,99848.14
2019-04-05T00:05:04.929Z,99844.81
2019-04-05T00:07:33.728Z,99858.34
2019-04-05T00:10:02.894Z,99854.83
2019-04-05T00:12:31.634Z,99850.52
2019-04-05T00:15:00.173Z,99854.19
2019-04-05T00:17:28.761Z,99856.91
2019-04-05T00:19:57.292Z,99849.66
2019-04-05T00:22:25.836Z,99853.02
2019-04-05T00:24:54.420Z,99860.42
2019-04-05T00:27:22.976Z,99847.17
2019-04-05T00:29:51.629Z,99849.86
2019-04-05T00:32:20.416Z,99847.58
2019-04-05T00:34:48.944Z,99839.16
2019-04-05T00:37:17.513Z,99844.36
2019-04-05T00:39:46.170Z,99837.16
2019-04-05T00:42:14.747Z,99839.37
2019-04-05T00:44:43.367Z,99843.98
2019-04-05T00:47:12.228Z,99850.36
2019-04-05T00:49:40.975Z,99848.02
2019-04-05T00:52:09.619Z,99846.56
2019-04-05T00:54:38.268Z,99849.79
2019-04-05T00:57:07.010Z,99863.82
2019-04-05T00:59:35.765Z,99853.25
2019-04-05T01:02:04.518Z,99853.25
2019-04-05T01:04:33.045Z,99853.73
2019-04-05T01:07:01.789Z,99863.95
2019-04-05T01:09:30.467Z,99858.34
2019-04-05T01:11:59.101Z,99861.17
2019-04-05T01:14:28.032Z,99856.30
2019-04-05T01:16:56.924Z,99851.09
2019-04-05T01:19:29.505Z,99844.74
2019-04-05T01:22:01.867Z,99844.62
2019-04-05T01:24:30.602Z,99840.48
2019-04-05T01:26:59.593Z,99844.62
2019-04-05T01:29:28.332Z,99844.67
2019-04-05T01:31:57.078Z,99845.45
2019-04-05T01:34:25.824Z,99847.36
2019-04-05T01:36:54.980Z,99855.52
2019-04-05T01:39:23.727Z,99856.02
2019-04-05T01:41:52.897Z,99867.78
2019-04-05T01:44:21.523Z,99871.61
2019-04-05T01:46:50.277Z,99878.98
2019-04-05T01:49:19.105Z,99873.33
2019-04-05T01:51:48.144Z,99879.94
2019-04-05T01:54:16.880Z,99887.73
2019-04-05T01:56:45.664Z,99889.86
2019-04-05T01:59:14.215Z,99897.13
2019-04-05T02:01:42.970Z,99903.95
2019-04-05T02:04:11.674Z,99899.46
2019-04-05T02:06:40.498Z,99897.17
2019-04-05T02:09:10.427Z,99902.91
2019-04-05T02:11:39.180Z,99896.77
2019-04-05T02:14:08.029Z,99905.66
2019-04-05T02:16:36.778Z,99900.89
2019-04-05T02:19:05.761Z,99906.50
2019-04-05T02:21:34.481Z,99916.44
2019-04-05T02:24:03.660Z,99906.50
2019-04-05T02:26:32.613Z,99908.99
2019-04-05T02:29:01.386Z,99903.55
2019-04-05T02:31:30.096Z,99894.70
2019-04-05T02:33:58.874Z,99890.84
2019-04-05T02:36:27.627Z,99886.16
2019-04-05T02:38:56.385Z,99888.63
2019-04-05T02:41:26.448Z,99884.57
2019-04-05T02:43:57.285Z,99879.47
2019-04-05T02:46:29.236Z,99880.62
2019-04-05T02:49:00.995Z,99880.30
2019-04-05T02:51:31.580Z,99876.34
2019-04-05T02:54:01.736Z,99876.69
2019-04-05T02:56:32.085Z,99878.69
2019-04-05T02:59:02.027Z,99872.76
2019-04-05T03:01:32.011Z,99868.02
2019-04-05T03:04:01.662Z,99863.06
2019-04-05T03:06:31.090Z,99864.16
2019-04-05T03:09:00.759Z,99867.80
2019-04-05T03:11:31.803Z,99866.82
2019-04-05T03:14:02.551Z,99868.20
2019-04-05T03:16:40.759Z,99880.56
2019-04-05T03:19:12.150Z,99873.17
2019-04-05T03:21:45.123Z,99876.42
2019-04-05T03:24:17.472Z,99884.02
2019-04-05T03:26:52.335Z,99876.06
2019-04-05T03:29:21.394Z,99872.72
2019-04-05T03:31:50.933Z,99881.86
2019-04-05T03:34:20.889Z,99879.62
2019-04-05T03:36:51.839Z,99880.70
2019-04-05T03:39:22.262Z,99882.30
2019-04-05T03:41:52.057Z,99883.11
2019-04-05T03:44:23.090Z,99890.80
2019-04-05T03:46:56.831Z,99889.94
2019-04-05T03:49:23.577Z,99900.72
2019-04-05T03:51:52.679Z,99899.33
2019-04-05T03:54:21.934Z,99902.07
2019-04-05T03:56:50.884Z,99911.41
2019-04-05T03:59:19.923Z,99907.48
2019-04-05T04:01:48.674Z,99911.05
2019-04-05T04:04:17.545Z,99905.55
2019-04-05T04:06:46.297Z,99904.46
2019-04-05T04:09:15.057Z,99897.88
2019-04-05T04:11:43.798Z,99891.81
2019-04-05T04:14:12.952Z,99894.30
2019-04-05T04:16:41.842Z,99905.84
2019-04-05T04:19:11.278Z,99896.70
2019-04-05T04:21:47.737Z,99897.48
2019-04-05T04:24:17.952Z,99900.32
2019-04-05T04:26:46.670Z,99895.11
2019-04-05T04:29:15.551Z,99895.27
2019-04-05T04:31:44.504Z,99897.33
2019-04-05T04:34:13.491Z,99902.45
2019-04-05T04:36:42.326Z,99904.70
2019-04-05T04:39:11.595Z,99904.93
2019-04-05T04:41:40.363Z,99913.41
2019-04-05T04:44:09.102Z,99909.90
2019-04-05T04:46:38.777Z,99906.95
2019-04-05T04:49:07.716Z,99911.06
2019-04-05T04:51:36.951Z,99919.63
2019-04-05T04:54:05.927Z,99927.90
2019-04-05T04:56:34.663Z,99930.13
2019-04-05T04:59:03.519Z,99945.73
2019-04-05T05:01:32.465Z,99939.91
2019-04-05T05:04:01.543Z,99941.77
2019-04-05T05:06:30.616Z,99941.48
2019-04-05T05:08:59.639Z,99941.85
2019-04-05T05:11:28.370Z,99942.89
2019-04-05T05:13:57.254Z,99943.50
2019-04-05T05:16:26.080Z,99946.05
2019-04-05T05:18:55.022Z,99942.19
2019-04-05T05:21:24.568Z,99948.13
2019-04-05T05:23:53.428Z,99955.47
2019-04-05T05:26:22.175Z,99959.12
2019-04-05T05:28:51.433Z,99962.30
2019-04-05T05:31:20.388Z,99963.02
2019-04-05T05:33:49.349Z,99970.50
2019-04-05T05:36:18.719Z,99976.20
2019-04-05T05:38:47.591Z,99971.51
2019-04-05T05:41:16.337Z,99967.66
2019-04-05T05:43:44.988Z,99969.30
2019-04-05T05:46:13.756Z,99967.81
2019-04-05T05:48:43.019Z,99965.18
2019-04-05T05:51:12.795Z,99964.61
2019-04-05T05:53:41.483Z,99960.27
2019-04-05T05:56:10.071Z,99961.98
2019-04-05T05:58:38.647Z,99962.14
2019-04-05T06:01:07.248Z,99963.26
2019-04-05T06:03:35.875Z,99962.91
2019-04-05T06:06:04.980Z,99971.95
2019-04-05T06:08:33.783Z,99971.27
2019-04-05T06:11:02.432Z,99975.20
2019-04-05T06:13:31.071Z,99971.70
2019-04-05T06:15:59.783Z,99974.66
2019-04-05T06:18:28.321Z,99972.78
2019-04-05T06:20:56.966Z,99970.56
2019-04-05T06:23:33.546Z,99965.61
2019-04-05T06:25:56.717Z,99969.38
2019-04-05T06:28:25.281Z,99963.41
2019-04-05T06:30:54.207Z,99968.61
2019-04-05T06:33:31.389Z,99968.00
2019-04-05T06:35:53.453Z,99964.86
2019-04-05T06:38:22.035Z,99965.18
2019-04-05T06:40:50.765Z,99963.19
2019-04-05T06:43:19.531Z,99969.31
2019-04-05T06:45:48.559Z,99980.33
2019-04-05T06:48:19.408Z,99973.75
2019-04-05T06:50:47.950Z,99967.01
2019-04-05T06:53:16.681Z,99969.81
2019-04-05T06:55:45.343Z,99967.93
2019-04-05T06:58:19.864Z,99973.62
2019-04-05T07:00:56.431Z,99974.30
2019-04-05T07:03:15.062Z,99975.78
2019-04-05T07:05:43.707Z,99972.78
2019-04-05T07:08:12.445Z,99976.77
2019-04-05T07:10:41.277Z,99978.61
2019-04-05T07:13:10.059Z,99974.86
2019-04-05T07:15:38.643Z,99979.30
2019-04-05T07:18:07.643Z,99980.16
2019-04-05T07:20:36.187Z,99984.41
2019-04-05T07:23:04.839Z,99987.47
2019-04-05T07:25:33.764Z,99994.29
2019-04-05T07:28:02.602Z,99989.80
2019-04-05T07:30:32.603Z,99985.34
2019-04-05T07:33:01.340Z,99981.49
2019-04-05T07:35:33.827Z,99980.59
2019-04-05T07:38:00.498Z,99980.95
2019-04-05T07:40:29.299Z,99984.45
2019-04-05T07:42:58.028Z,99985.30
2019-04-05T07:45:27.995Z,99990.07
2019-04-05T07:47:56.687Z,99977.44
2019-04-05T07:50:25.520Z,99982.03
2019-04-05T07:52:54.178Z,99988.87
2019-04-05T07:55:22.844Z,99990.45
2019-04-05T07:57:51.550Z,99991.41
2019-04-05T08:00:42.763Z,99985.64
2019-04-05T08:03:11.735Z,99977.10
2019-04-05T08:05:40.432Z,99983.26
2019-04-05T08:08:13.184Z,99989.67
2019-04-05T08:10:43.883Z,99992.79
2019-04-05T08:13:14.229Z,99997.39
2019-04-05T08:15:42.917Z,99997.24
2019-04-05T08:18:11.691Z,99987.40
2019-04-05T08:20:40.382Z,99993.81
2019-04-05T08:23:09.154Z,99998.04
2019-04-05T08:25:40.975Z,100004.86
2019-04-05T08:28:08.494Z,100003.77
2019-04-05T08:30:37.072Z,100007.63
2019-04-05T08:33:05.708Z,100002.93
2019-04-05T08:35:34.279Z,100005.17
2019-04-05T08:38:03.128Z,100003.52
2019-04-05T08:40:31.677Z,99999.98
2019-04-05T08:43:01.556Z,99995.57
2019-04-05T08:45:30.208Z,100000.02
2019-04-05T08:47:58.874Z,100006.70
2019-04-05T08:50:27.501Z,100002.83
2019-04-05T08:52:56.188Z,100012.26
2019-04-05T08:55:24.953Z,100010.03
2019-04-05T08:57:53.531Z,100007.53
2019-04-05T09:00:22.327Z,100007.09
2019-04-05T09:02:51.010Z,100011.41
2019-04-05T09:05:19.756Z,100001.70
2019-04-05T09:07:48.344Z,100009.77
2019-04-05T09:10:17.009Z,100016.11
2019-04-05T09:12:45.569Z,100009.94
2019-04-05T09:15:14.252Z,100017.82
2019-04-05T09:17:42.813Z,100009.97
2019-04-05T09:20:12.041Z,100004.03
2019-04-05T09:22:40.609Z,100002.73
2019-04-05T09:25:09.467Z,100000.86
2019-04-05T09:27:38.146Z,100007.48
2019-04-05T09:30:07.522Z,100001.41
2019-04-05T09:32:36.687Z,100002.52
2019-04-05T09:35:05.593Z,100008.37
2019-04-05T09:37:34.164Z,100008.28
2019-04-05T09:40:03.921Z,100010.80
2019-04-05T09:42:32.585Z,100014.36
2019-04-05T09:45:01.363Z,100008.05
2019-04-05T09:47:30.144Z,100008.34
2019-04-05T09:49:58.691Z,100007.17
2019-04-05T09:52:27.476Z,100004.48
2019-04-05T09:54:56.077Z,100003.35
2019-04-05T09:57:24.794Z,100013.48
2019-04-05T09:59:53.557Z,100004.76
2019-04-05T10:02:22.128Z,100003.30
2019-04-05T10:04:50.852Z,100002.75
2019-04-05T10:07:19.443Z,100006.12
2019-04-05T10:09:50.310Z,100006.05
2019-04-05T10:12:18.452Z,100007.94
2019-04-05T10:14:46.989Z,100005.76
2019-04-05T10:17:15.537Z,100009.69
2019-04-05T10:19:49.857Z,100011.23
2019-04-05T10:22:14.549Z,100007.48
2019-04-05T10:24:43.389Z,99997.41
2019-04-05T10:27:12.060Z,99993.87
2019-04-05T10:29:40.637Z,99990.84
2019-04-05T10:32:09.206Z,99994.98
2019-04-05T10:34:37.759Z,99988.66
2019-04-05T10:37:06.448Z,99994.17
2019-04-05T10:39:34.989Z,99994.71
2019-04-05T10:42:05.545Z,99994.98
2019-04-05T10:44:34.114Z,99995.52
2019-04-05T10:47:03.367Z,99995.80
2019-04-05T10:49:32.105Z,99999.16
2019-04-05T10:52:00.840Z,99996.70
2019-04-05T10:54:29.809Z,99999.86
2019-04-05T10:56:58.395Z,99998.47
2019-04-05T10:59:27.098Z,99994.98
2019-04-05T11:01:55.658Z,99999.59
2019-04-05T11:04:24.342Z,99993.55
2019-04-05T11:06:52.898Z,99992.81
2019-04-05T11:09:21.572Z,99994.16
2019-04-05T11:11:50.316Z,99988.59
2019-04-05T11:14:18.952Z,99989.43
2019-04-05T11:16:57.958Z,99993.06
2019-04-05T11:19:18.153Z,99984.46
2019-04-05T11:21:48.493Z,99979.71
2019-04-05T11:24:17.452Z,99981.17
2019-04-05T11:26:46.101Z,99978.28
2019-04-05T11:29:14.887Z,99984.01
2019-04-05T11:31:55.917Z,99987.98
2019-04-05T11:34:14.420Z,100001.70
2019-04-05T11:36:43.171Z,99995.86
2019-04-05T11:39:11.740Z,99990.02
2019-04-05T11:41:42.082Z,99997.54
2019-04-05T11:44:11.038Z,100001.13
2019-04-05T11:46:39.770Z,99997.54
2019-04-05T11:49:08.425Z,99988.06
2019-04-05T11:51:37.339Z,99991.92
2019-04-05T11:54:05.991Z,99988.38
2019-04-05T11:56:35.067Z,99996.11
2019-04-05T11:59:06.252Z,99998.33
2019-04-05T12:01:43.415Z,99997.20
2019-04-05T12:04:12.233Z,100002.16
2019-04-05T12:06:40.773Z,99998.88
2019-04-05T12:09:09.491Z,100003.61
2019-04-05T12:11:38.256Z,99998.64
2019-04-05T12:14:06.904Z,100001.94
2019-04-05T12:16:36.207Z,99995.75
2019-04-05T12:19:05.486Z,99993.56
2019-04-05T12:21:34.777Z,99994.17
2019-04-05T12:24:04.244Z,99987.98
2019-04-05T12:26:34.472Z,99985.87
2019-04-05T12:29:03.599Z,99978.09
2019-04-05T12:31:32.261Z,99975.86
2019-04-05T12:34:00.969Z,99980.55
2019-04-05T12:36:29.666Z,99970.59
2019-04-05T12:38:58.239Z,99965.83
2019-04-05T12:41:26.808Z,99961.13
2019-04-05T12:43:55.461Z,99962.78
2019-04-05T12:46:24.138Z,99962.52
2019-04-05T12:48:52.726Z,99961.39
2019-04-05T12:51:21.488Z,99950.02
2019-04-05T12:53:50.290Z,99948.88
2019-04-05T12:56:19.147Z,99944.11
2019-04-05T12:58:48.003Z,99942.49
2019-04-05T13:01:16.870Z,99938.63
2019-04-05T13:03:46.062Z,99937.52
2019-04-05T13:06:15.288Z,99933.88
2019-04-05T13:08:43.914Z,99942.52
2019-04-05T13:11:12.541Z,99944.73
2019-04-05T13:13:41.056Z,99945.59
2019-04-05T13:16:10.968Z,99945.58
2019-04-05T13:18:39.714Z,99944.75
2019-04-05T13:21:15.042Z,99941.95
2019-04-05T13:23:39.032Z,99937.50
2019-04-05T13:26:11.505Z,99938.31
2019-04-05T13:28:38.719Z,99937.80
2019-04-05T13:31:07.318Z,99935.58
2019-04-05T13:33:35.962Z,99933.08
2019-04-05T13:36:04.641Z,99938.02
2019-04-05T13:38:33.283Z,99933.55
2019-04-05T13:41:02.216Z,99942.75
2019-04-05T13:43:31.882Z,99931.96
2019-04-05T13:46:01.488Z,99924.47
2019-04-05T13:48:30.463Z,99925.59
2019-04-05T13:50:59.221Z,99923.34
2019-04-05T13:53:27.789Z,99919.19
2019-04-05T13:55:56.401Z,99924.19
2019-04-05T13:58:24.935Z,99914.19
2019-04-05T14:00:53.642Z,99915.86
2019-04-05T14:03:22.185Z,99911.14
2019-04-05T14:05:54.002Z,99908.92
2019-04-05T14:08:21.655Z,99906.69
2019-04-05T14:10:50.325Z,99909.47
2019-04-05T14:13:19.580Z,99904.75
2019-04-05T14:15:48.257Z,99905.01
2019-04-05T14:18:16.780Z,99906.12
2019-04-05T14:20:45.433Z,99909.70
2019-04-05T14:23:13.986Z,99907.47
2019-04-05T14:25:42.757Z,99905.80
2019-04-05T14:28:11.859Z,99900.25
2019-04-05T14:30:40.802Z,99899.16
2019-04-05T14:33:09.544Z,99891.92
2019-04-05T14:35:38.201Z,99890.29
2019-04-05T14:38:06.740Z,99893.25
2019-04-05T14:40:35.394Z,99896.38
2019-04-05T14:43:04.140Z,99896.39
2019-04-05T14:45:32.800Z,99894.20
2019-04-05T14:48:01.495Z,99890.58
2019-04-05T14:50:30.259Z,99896.05
2019-04-05T14:53:01.203Z,99898.73
2019-04-05T14:55:29.870Z,99895.74
2019-04-05T14:57:59.125Z,99893.20
2019-04-05T15:00:27.905Z,99890.17
2019-04-05T15:02:56.475Z,99888.45
2019-04-05T15:05:25.035Z,99884.61
2019-04-05T15:07:54.968Z,99890.47
2019-04-05T15:10:25.283Z,99889.98
2019-04-05T15:12:54.382Z,99886.59
2019-04-05T15:15:23.137Z,99885.13
2019-04-05T15:17:51.932Z,99876.78
2019-04-05T15:20:20.881Z,99877.63
2019-04-05T15:22:49.434Z,99871.77
2019-04-05T15:25:21.574Z,99879.73
2019-04-05T15:27:51.259Z,99874.59
2019-04-05T15:30:19.742Z,99871.17
2019-04-05T15:32:51.193Z,99873.17
2019-04-05T15:35:18.928Z,99864.31
2019-04-05T15:37:47.517Z,99870.58
2019-04-05T15:40:16.366Z,99869.43
2019-04-05T15:42:44.912Z,99858.95
2019-04-05T15:45:16.053Z,99866.23
2019-04-05T15:47:44.472Z,99866.55
2019-04-05T15:50:13.338Z,99859.38
2019-04-05T15:52:44.409Z,99858.21
2019-04-05T15:55:13.308Z,99857.66
2019-04-05T15:57:42.011Z,99856.56
2019-04-05T16:00:11.997Z,99858.42
2019-04-05T16:02:42.922Z,99859.27
2019-04-05T16:05:12.243Z,99861.42
2019-04-05T16:07:40.979Z,99866.47
2019-04-05T16:10:10.381Z,99872.03
2019-04-05T16:12:39.147Z,99869.94
2019-04-05T16:15:08.213Z,99865.36
2019-04-05T16:17:37.185Z,99872.73
2019-04-05T16:20:07.167Z,99877.09
2019-04-05T16:22:36.099Z,99882.05
2019-04-05T16:25:05.790Z,99883.19
2019-04-05T16:27:34.364Z,99884.92
2019-04-05T16:30:04.178Z,99882.95
2019-04-05T16:32:33.096Z,99881.34
2019-04-05T16:35:01.678Z,99887.70
2019-04-05T16:37:30.225Z,99884.90
2019-04-05T16:39:58.856Z,99891.53
2019-04-05T16:42:27.633Z,99898.67
2019-04-05T16:44:56.405Z,99889.78
2019-04-05T16:47:25.163Z,99891.13
2019-04-05T16:49:53.926Z,99890.30
2019-04-05T16:52:22.519Z,99891.90
2019-04-05T16:54:51.066Z,99893.87
2019-04-05T16:57:19.769Z,99901.34
2019-04-05T16:59:48.537Z,99899.09
2019-04-05T17:02:17.217Z,99893.63
2019-04-05T17:04:45.791Z,99893.21
2019-04-05T17:07:14.344Z,99894.81
2019-04-05T17:09:42.899Z,99897.72
2019-04-05T17:12:11.582Z,99892.24
2019-04-05T17:14:40.335Z,99893.31
2019-04-05T17:17:09.007Z,99894.98
2019-04-05T17:19:37.576Z,99898.67
2019-04-05T17:22:06.218Z,99893.87
2019-04-05T17:24:34.761Z,99903.77
2019-04-05T17:27:03.690Z,99899.69
2019-04-05T17:29:32.373Z,99899.12
2019-04-05T17:32:01.039Z,99898.52
2019-04-05T17:34:29.639Z,99900.48
2019-04-05T17:36:58.303Z,99899.06
2019-04-05T17:39:26.847Z,99896.64
2019-04-05T17:41:55.527Z,99894.73
2019-04-05T17:44:24.071Z,99891.69
2019-04-05T17:46:52.629Z,99892.30
2019-04-05T17:49:21.183Z,99889.22
2019-04-05T17:51:49.828Z,99892.48
2019-04-05T17:54:18.473Z,99895.01
2019-04-05T17:56:47.290Z,99884.95
2019-04-05T17:59:16.024Z,99888.55
2019-04-05T18:01:44.788Z,99899.09
2019-04-05T18:04:13.472Z,99889.09
2019-04-05T18:06:42.014Z,99898.92
2019-04-05T18:09:10.895Z,99900.27
2019-04-05T18:11:39.681Z,99906.45
2019-04-05T18:14:08.263Z,99903.99
2019-04-05T18:16:36.819Z,99908.05
2019-04-05T18:19:05.496Z,99905.59
2019-04-05T18:21:34.038Z,99910.27
2019-04-05T18:24:02.787Z,99912.25
2019-04-05T18:26:31.457Z,99917.75
2019-04-05T18:29:00.123Z,99920.14
2019-04-05T18:31:29.462Z,99923.75
2019-04-05T18:33:58.036Z,99925.37
2019-04-05T18:36:26.675Z,99920.18
2019-04-05T18:38:55.286Z,99924.78
2019-04-05T18:41:24.068Z,99920.62
2019-04-05T18:43:52.587Z,99920.59
2019-04-05T18:46:21.233Z,99929.22
2019-04-05T18:48:49.938Z,99931.74
2019-04-05T18:51:18.471Z,99936.73
2019-04-05T18:53:47.210Z,99934.71
2019-04-05T18:56:15.767Z,99936.33
2019-04-05T18:58:44.560Z,99943.22
2019-04-05T19:01:13.225Z,99942.98
2019-04-05T19:03:41.809Z,99945.42
2019-04-05T19:06:10.447Z,99942.78
2019-04-05T19:08:40.169Z,99944.72
2019-04-05T19:11:08.879Z,99945.07
2019-04-05T19:13:37.536Z,99945.47
2019-04-05T19:16:06.366Z,99949.89
2019-04-05T19:18:35.349Z,99947.69
2019-04-05T19:21:04.256Z,99949.15
2019-04-05T19:23:32.932Z,99953.22
2019-04-05T19:26:01.625Z,99955.67
2019-04-05T19:28:30.407Z,99956.03
2019-04-05T19:48:35.278Z,99955.04
2019-04-05T19:51:04.111Z,99953.34
2019-04-05T19:53:32.766Z,99947.97
2019-04-05T19:56:01.657Z,99954.69
2019-04-05T19:58:30.224Z,99946.97
2019-04-05T20:00:59.284Z,99947.56
2019-04-05T20:03:28.068Z,99949.15
2019-04-05T20:05:56.820Z,99943.69
2019-04-05T20:08:25.487Z,99942.30
2019-04-05T20:10:54.362Z,99940.33
2019-04-05T20:13:23.103Z,99940.20
2019-04-05T20:15:51.648Z,99940.96
2019-04-05T20:18:20.337Z,99939.62
2019-04-05T20:20:48.884Z,99941.79
2019-04-05T20:23:17.539Z,99939.02
2019-04-05T20:25:46.208Z,99935.98
2019-04-05T20:28:14.748Z,99933.80
2019-04-05T20:30:43.400Z,99935.19
2019-04-05T20:33:11.978Z,99932.42
2019-04-05T20:35:40.628Z,99937.12
2019-04-05T20:38:09.299Z,99934.91
2019-04-05T20:40:37.946Z,99932.66
2019-04-05T20:43:06.615Z,99928.78
2019-04-05T20:45:35.379Z,99926.09
2019-04-05T20:48:04.065Z,99926.05
2019-04-05T20:50:32.716Z,99922.73
2019-04-05T20:53:01.410Z,99919.69
2019-04-05T20:55:30.029Z,99918.17
2019-04-05T20:57:58.670Z,99920.56
2019-04-05T21:00:27.322Z,99911.73
2019-04-05T21:02:55.910Z,99905.02
2019-04-05T21:05:25.475Z,99892.83
2019-04-05T21:07:54.541Z,99898.65
2019-04-05T21:10:23.117Z,99906.12
2019-04-05T21:12:51.651Z,99909.45
2019-04-05T21:15:20.220Z,99903.39
2019-04-05T21:17:49.204Z,99910.38
2019-04-05T21:20:17.971Z,99915.99
2019-04-05T21:22:46.504Z,99926.06
2019-04-05T21:25:15.231Z,99914.43
2019-04-05T21:27:43.775Z,99921.08
2019-04-05T21:30:14.057Z,99917.75
2019-04-05T21:32:42.756Z,99921.29
2019-04-05T21:35:11.409Z,99925.89
2019-04-05T21:37:39.947Z,99921.22
2019-04-05T21:40:08.625Z,99910.94
2019-04-05T21:42:37.272Z,99907.34
2019-04-05T21:45:06.071Z,99912.11
2019-04-05T21:47:34.795Z,99901.25
2019-04-05T21:50:04.344Z,99898.69
2019-04-05T21:52:32.882Z,99889.95
2019-04-05T21:55:01.558Z,99892.08
2019-04-05T21:57:30.108Z,99892.66
2019-04-05T21:59:58.665Z,99889.86
2019-04-05T22:02:27.447Z,99891.69
2019-04-05T22:04:56.192Z,99888.58
2019-04-05T22:07:24.840Z,99894.08
2019-04-05T22:09:53.506Z,99888.82
2019-04-05T22:12:22.036Z,99892.88
2019-04-05T22:14:50.784Z,99895.70
2019-04-05T22:17:19.464Z,99897.16
2019-04-05T22:19:48.098Z,99893.77
2019-04-05T22:22:16.649Z,99889.34
2019-04-05T22:24:45.230Z,99880.80
2019-04-05T22:27:13.794Z,99887.72
2019-04-05T22:29:42.362Z,99884.73
2019-04-05T22:32:11.660Z,99891.59
2019-04-05T22:34:40.396Z,99886.11
2019-04-05T22:37:08.965Z,99888.82
2019-04-05T22:39:37.546Z,99895.22
2019-04-05T22:42:06.095Z,99883.03
2019-04-05T22:44:39.887Z,99892.63
2019-04-05T22:47:05.119Z,99894.15
2019-04-05T22:49:33.662Z,99893.22
2019-04-05T22:52:02.295Z,99894.67
2019-04-05T22:54:30.922Z,99900.45
2019-04-05T22:56:59.469Z,99896.74
2019-04-05T22:59:28.192Z,99892.88
2019-04-05T23:01:56.829Z,99897.89
2019-04-05T23:04:25.468Z,99898.30
2019-04-05T23:06:54.049Z,99904.30
2019-04-05T23:09:22.812Z,99902.08
2019-04-05T23:11:51.458Z,99897.72
2019-04-05T23:14:20.024Z,99889.95
2019-04-05T23:16:48.799Z,99897.98
2019-04-05T23:19:17.368Z,99886.85
2019-04-05T23:21:45.913Z,99881.34
2019-04-05T23:24:14.604Z,99888.52
2019-04-05T23:26:43.138Z,99892.45
2019-04-05T23:29:11.863Z,99894.05
2019-04-05T23:31:40.435Z,99892.97
2019-04-05T23:34:09.001Z,99887.03
2019-04-05T23:36:37.653Z,99898.09
2019-04-05T23:39:06.416Z,99901.31
2019-04-05T23:41:35.066Z,99902.11
2019-04-05T23:44:03.799Z,99891.59
2019-04-05T23:46:32.394Z,99894.91
2019-04-05T23:49:00.938Z,99892.97
2019-04-05T23:51:29.516Z,99890.97
2019-04-05T23:53:58.171Z,99892.59
2019-04-05T23:56:26.827Z,99893.77
2019-04-05T23:58:55.374Z,99894.84
